Time;durP1;ratioP1;P1;durP2;ratioP2;P2;SDS_P1;SDS_P2;PMS_P1;PMS_P2;Temp;Humidity;BMP_temperature;BMP_pressure;BME280_temperature;BME280_humidity;BME280_pressure;Samples;Min_cycle;Max_cycle;Signal;HPM_P1;HPM_P2
2022/09/08 00:00:06;;;;;;;2.78;1.27;;;25.50;96.80;;;;;;5032473;28;20065;-24
2022/09/08 00:02:35;;;;;;;1.42;1.00;;;25.50;96.70;;;;;;5074768;22;20029;-25
2022/09/08 00:05:01;;;;;;;2.25;1.23;;;25.50;96.70;;;;;;5052036;28;20029;-25
2022/09/08 00:07:28;;;;;;;1.15;0.90;;;25.50;96.80;;;;;;5052041;28;20527;-25
2022/09/08 00:09:54;;;;;;;1.95;1.00;;;25.50;96.80;;;;;;5051858;28;20021;-25
2022/09/08 00:12:20;;;;;;;1.85;1.08;;;25.40;96.70;;;;;;5051706;28;20074;-25
2022/09/08 00:14:46;;;;;;;2.55;1.30;;;25.40;96.70;;;;;;5052042;28;20017;-25
2022/09/08 00:17:11;;;;;;;1.65;1.10;;;25.50;96.80;;;;;;5051719;28;20032;-25
2022/09/08 00:19:37;;;;;;;1.50;0.98;;;25.40;96.70;;;;;;5051794;28;20036;-25
2022/09/08 00:22:03;;;;;;;1.15;0.98;;;25.40;96.70;;;;;;5051771;28;20029;-25
2022/09/08 00:24:28;;;;;;;1.63;1.08;;;25.40;96.70;;;;;;5051793;28;20025;-25
2022/09/08 00:26:54;;;;;;;1.83;1.00;;;25.40;96.70;;;;;;5051868;28;20044;-25
2022/09/08 00:29:20;;;;;;;4.00;1.27;;;25.40;96.80;;;;;;5051503;28;20078;-26
2022/09/08 00:31:45;;;;;;;1.52;0.98;;;25.40;96.80;;;;;;5051566;28;20103;-25
2022/09/08 00:34:11;;;;;;;2.85;1.30;;;25.40;96.80;;;;;;5051700;28;20060;-25
2022/09/08 00:36:37;;;;;;;1.83;1.00;;;25.40;96.80;;;;;;5051760;28;20094;-25
2022/09/08 00:39:03;;;;;;;1.10;1.00;;;25.40;96.80;;;;;;5051540;28;20425;-26
2022/09/08 00:41:29;;;;;;;1.35;0.90;;;25.30;96.80;;;;;;5051481;28;20426;-26
2022/09/08 00:44:00;;;;;;;1.73;1.08;;;25.30;96.80;;;;;;5051636;28;20100;-25
2022/09/08 00:46:39;;;;;;;1.20;0.90;;;25.30;96.70;;;;;;5054156;28;20021;-26
2022/09/08 00:49:19;;;;;;;2.45;1.20;;;25.30;96.70;;;;;;5055686;28;20428;-26
2022/09/08 00:51:49;;;;;;;1.50;1.05;;;25.30;97.00;;;;;;5055637;28;20501;-25
2022/09/08 00:54:17;;;;;;;1.88;1.30;;;25.30;96.80;;;;;;5055444;28;20033;-25
2022/09/08 00:56:46;;;;;;;3.03;1.08;;;25.30;96.80;;;;;;5055262;28;20119;-26
2022/09/08 00:59:15;;;;;;;2.35;1.02;;;25.30;96.70;;;;;;5055301;28;20025;-25
2022/09/08 01:01:41;;;;;;;3.35;1.40;;;25.30;96.70;;;;;;5055207;28;20604;-26
2022/09/08 01:04:08;;;;;;;3.85;1.17;;;25.30;96.70;;;;;;5055154;28;20059;-26
2022/09/08 01:12:45;;;;;;;2.20;1.00;;;25.30;96.70;;;;;;5055285;28;20083;-26
2022/09/08 01:15:16;;;;;;;2.13;1.02;;;25.30;97.00;;;;;;5055182;28;20020;-26
2022/09/08 01:17:42;;;;;;;1.55;1.00;;;25.20;96.60;;;;;;5054962;28;20051;-25
2022/09/08 01:20:09;;;;;;;1.40;1.02;;;25.20;96.60;;;;;;5054947;28;20068;-26
2022/09/08 01:22:47;;;;;;;2.25;1.00;;;25.20;96.60;;;;;;5055131;28;20049;-26
2022/09/08 01:25:34;;;;;;;1.92;1.10;;;25.20;96.60;;;;;;5054964;28;20474;-26
2022/09/08 01:28:11;;;;;;;2.15;1.10;;;25.20;96.60;;;;;;5054847;28;20029;-25
2022/09/08 01:30:36;;;;;;;3.05;1.00;;;25.20;96.60;;;;;;5054681;28;20035;-26
2022/09/08 01:33:06;;;;;;;2.50;1.10;;;25.20;96.60;;;;;;5054731;28;20112;-26
2022/09/08 01:35:34;;;;;;;1.95;1.00;;;25.20;96.60;;;;;;5053459;28;20029;-26
2022/09/08 01:38:00;;;;;;;1.98;1.02;;;25.20;96.50;;;;;;5054639;28;20048;-25
2022/09/08 01:40:26;;;;;;;2.92;1.10;;;25.10;96.50;;;;;;5054194;28;20079;-25
2022/09/08 01:42:52;;;;;;;2.00;1.05;;;25.10;96.50;;;;;;5054565;28;20136;-26
2022/09/08 01:45:17;;;;;;;1.35;0.90;;;25.10;96.90;;;;;;5054607;28;20021;-25
2022/09/08 01:47:43;;;;;;;2.08;0.90;;;25.20;96.50;;;;;;5054514;28;20025;-25
2022/09/08 01:50:09;;;;;;;1.83;1.00;;;25.10;96.50;;;;;;5054268;28;20474;-26
2022/09/08 01:52:35;;;;;;;2.92;1.30;;;25.10;96.50;;;;;;5054394;28;20090;-25
2022/09/08 01:55:01;;;;;;;4.78;1.17;;;25.10;96.50;;;;;;5054246;28;20040;-25
2022/09/08 01:57:26;;;;;;;2.30;1.00;;;25.10;96.50;;;;;;5052662;28;20024;-25
2022/09/08 01:59:52;;;;;;;2.50;1.00;;;25.10;96.40;;;;;;5054161;28;20127;-26
2022/09/08 02:02:18;;;;;;;3.58;1.08;;;25.10;96.40;;;;;;5054001;28;20037;-25
2022/09/08 02:04:43;;;;;;;3.20;1.20;;;25.10;96.40;;;;;;5054075;28;20033;-26
2022/09/08 02:07:10;;;;;;;1.08;0.90;;;25.10;96.40;;;;;;5054237;28;20029;-26
2022/09/08 02:09:36;;;;;;;1.33;0.80;;;25.10;96.40;;;;;;5053857;28;20017;-26
2022/09/08 02:12:02;;;;;;;1.92;0.80;;;25.10;96.40;;;;;;5054070;28;20031;-25
2022/09/08 02:14:28;;;;;;;2.80;1.02;;;25.10;96.40;;;;;;5054174;28;20025;-25
2022/09/08 02:16:53;;;;;;;2.38;1.05;;;25.10;96.70;;;;;;5054003;28;20389;-25
2022/09/08 02:19:19;;;;;;;1.50;0.98;;;25.10;96.30;;;;;;5053848;28;20029;-26
2022/09/08 02:21:44;;;;;;;2.60;1.00;;;25.10;96.30;;;;;;5053804;28;20079;-25
2022/09/08 02:24:10;;;;;;;2.00;1.10;;;25.10;96.30;;;;;;5053660;28;20382;-26
2022/09/08 02:26:37;;;;;;;1.77;0.85;;;25.10;96.30;;;;;;5053813;28;20074;-25
2022/09/08 02:29:03;;;;;;;1.15;0.80;;;25.00;96.30;;;;;;5053646;28;20017;-26
2022/09/08 02:31:29;;;;;;;1.30;0.98;;;25.00;96.30;;;;;;5053770;28;20025;-26
2022/09/08 02:33:56;;;;;;;2.10;1.00;;;25.00;96.20;;;;;;5053834;28;20489;-26
2022/09/08 02:36:21;;;;;;;2.10;1.10;;;25.00;96.20;;;;;;5053877;28;20036;-26
2022/09/08 02:38:49;;;;;;;1.52;0.70;;;25.00;96.20;;;;;;5054123;28;20021;-26
2022/09/08 02:41:15;;;;;;;1.67;0.90;;;25.00;96.20;;;;;;5053541;28;20035;-26
2022/09/08 02:43:41;;;;;;;2.97;0.70;;;25.00;96.30;;;;;;5053758;28;20445;-26
2022/09/08 02:46:08;;;;;;;1.90;0.77;;;24.90;94.80;;;;;;5053815;28;20021;-26
2022/09/08 02:48:34;;;;;;;2.15;0.68;;;24.50;94.70;;;;;;5054151;28;20100;-26
2022/09/08 02:51:01;;;;;;;2.60;0.45;;;24.20;94.90;;;;;;5054011;28;20029;-26
2022/09/08 02:53:28;;;;;;;2.53;0.60;;;24.20;95.20;;;;;;5054231;28;20036;-26
2022/09/08 02:55:54;;;;;;;2.05;0.85;;;24.30;95.20;;;;;;5054340;28;20083;-26
2022/09/08 02:58:19;;;;;;;2.42;0.80;;;24.40;95.20;;;;;;5053362;28;20028;-26
2022/09/08 03:00:45;;;;;;;1.40;0.60;;;24.50;95.20;;;;;;5051778;28;20059;-26
2022/09/08 03:03:11;;;;;;;1.95;0.52;;;24.50;95.10;;;;;;5053183;28;20029;-26
2022/09/08 03:05:37;;;;;;;1.63;0.70;;;24.60;95.10;;;;;;5053281;28;20469;-26
2022/09/08 03:08:04;;;;;;;2.70;0.65;;;24.60;95.00;;;;;;5052208;28;20025;-25
2022/09/08 03:10:31;;;;;;;1.60;0.70;;;24.60;95.00;;;;;;5053114;28;20025;-26
2022/09/08 03:12:58;;;;;;;1.58;0.75;;;24.70;95.00;;;;;;5052831;28;20088;-26
2022/09/08 03:15:26;;;;;;;3.42;0.70;;;24.70;94.90;;;;;;5052825;28;20032;-25
2022/09/08 03:17:52;;;;;;;1.67;0.68;;;24.50;94.10;;;;;;5052770;28;20494;-26
2022/09/08 03:20:18;;;;;;;2.92;0.60;;;24.10;94.70;;;;;;5052434;28;20127;-26
2022/09/08 03:22:44;;;;;;;1.52;0.75;;;23.90;95.10;;;;;;5052535;28;20029;-25
2022/09/08 03:25:10;;;;;;;1.17;0.60;;;23.90;95.30;;;;;;5053038;28;20021;-26
2022/09/08 03:27:36;;;;;;;1.80;0.70;;;24.00;95.50;;;;;;5052623;28;20017;-25
2022/09/08 03:30:05;;;;;;;2.60;0.52;;;24.10;95.60;;;;;;5052454;28;20120;-25
2022/09/08 03:32:36;;;;;;;1.60;0.47;;;24.20;95.70;;;;;;5052432;28;20072;-26
2022/09/08 03:35:03;;;;;;;2.42;0.82;;;24.20;95.70;;;;;;5052415;28;20025;-25
2022/09/08 03:37:29;;;;;;;2.25;0.52;;;24.40;95.80;;;;;;5052445;28;20039;-26
2022/09/08 03:39:55;;;;;;;1.75;0.77;;;24.40;96.00;;;;;;5052327;28;20020;-26
2022/09/08 03:42:21;;;;;;;0.88;0.40;;;24.40;96.00;;;;;;5052254;28;20397;-26
2022/09/08 03:44:47;;;;;;;2.83;0.52;;;24.40;96.10;;;;;;5052347;28;20013;-25
2022/09/08 03:47:13;;;;;;;1.55;0.60;;;24.50;96.20;;;;;;5052328;28;20025;-25
2022/09/08 03:49:39;;;;;;;1.60;0.60;;;24.50;96.30;;;;;;5052094;28;20104;-26
2022/09/08 03:52:05;;;;;;;0.95;0.40;;;24.50;96.50;;;;;;5052464;28;20033;-26
2022/09/08 03:54:50;;;;;;;2.58;0.60;;;24.50;96.60;;;;;;5052188;28;20457;-26
2022/09/08 03:57:21;;;;;;;1.20;0.40;;;24.50;96.60;;;;;;5052197;28;20111;-25
2022/09/08 03:59:49;;;;;;;1.25;0.50;;;24.50;96.70;;;;;;5052040;28;20534;-26
2022/09/08 04:02:15;;;;;;;1.30;0.57;;;24.50;96.80;;;;;;5051882;28;20068;-26
2022/09/08 04:04:42;;;;;;;0.90;0.52;;;24.50;96.80;;;;;;5051946;28;20060;-25
2022/09/08 04:07:07;;;;;;;1.73;0.65;;;24.50;96.80;;;;;;5051979;28;20021;-25
2022/09/08 04:09:33;;;;;;;2.53;0.65;;;24.50;97.00;;;;;;5051853;28;20087;-25
2022/09/08 04:11:59;;;;;;;1.17;0.40;;;24.50;97.20;;;;;;5051945;28;20032;-26
2022/09/08 04:14:25;;;;;;;1.27;0.50;;;24.50;97.20;;;;;;5051853;28;20040;-26
2022/09/08 04:16:50;;;;;;;1.00;0.52;;;24.50;97.30;;;;;;5051889;28;20541;-26
2022/09/08 04:19:16;;;;;;;2.25;0.50;;;24.50;97.40;;;;;;5051686;28;20025;-26
2022/09/08 04:21:42;;;;;;;2.13;0.50;;;24.50;97.80;;;;;;5051664;28;20029;-26
2022/09/08 04:24:07;;;;;;;1.30;0.40;;;24.50;97.60;;;;;;5051817;28;20500;-26
2022/09/08 04:26:33;;;;;;;1.70;0.50;;;24.50;97.60;;;;;;5050740;28;20070;-26
2022/09/08 04:28:59;;;;;;;1.98;0.50;;;24.50;97.70;;;;;;5051611;28;20356;-26
2022/09/08 04:31:25;;;;;;;1.45;0.50;;;24.50;97.80;;;;;;5051582;28;20047;-26
2022/09/08 04:33:50;;;;;;;1.33;0.43;;;24.50;97.80;;;;;;5051816;28;20025;-26
2022/09/08 04:36:20;;;;;;;1.73;0.45;;;24.50;97.80;;;;;;5051699;28;20017;-26
2022/09/08 04:38:46;;;;;;;2.03;0.50;;;24.50;97.80;;;;;;5051536;28;20029;-26
2022/09/08 04:41:14;;;;;;;0.85;0.57;;;24.50;97.80;;;;;;5052006;28;20100;-26
2022/09/08 04:43:40;;;;;;;0.75;0.40;;;24.50;98.00;;;;;;5051585;28;20118;-26
2022/09/08 04:46:09;;;;;;;0.88;0.50;;;24.50;98.00;;;;;;5051693;28;20478;-26
2022/09/08 04:48:36;;;;;;;1.48;0.60;;;24.50;98.00;;;;;;5051593;28;20036;-26
2022/09/08 04:51:03;;;;;;;1.90;0.57;;;24.50;98.10;;;;;;5051631;28;20542;-26
2022/09/08 04:53:30;;;;;;;0.70;0.40;;;24.50;98.10;;;;;;5051504;28;20025;-26
2022/09/08 04:55:56;;;;;;;2.17;0.73;;;24.50;98.20;;;;;;5051558;28;20498;-25
2022/09/08 04:58:22;;;;;;;0.90;0.30;;;24.50;98.20;;;;;;5051481;28;20108;-26
2022/09/08 05:00:48;;;;;;;2.45;0.45;;;24.50;98.20;;;;;;5051359;28;20021;-25
2022/09/08 05:03:14;;;;;;;2.50;0.50;;;24.50;98.20;;;;;;5051293;28;20036;-25
2022/09/08 05:05:40;;;;;;;0.68;0.45;;;24.40;98.20;;;;;;5051424;28;20084;-25
2022/09/08 05:08:07;;;;;;;0.65;0.32;;;24.50;98.30;;;;;;5051382;28;20021;-26
2022/09/08 05:10:33;;;;;;;0.57;0.30;;;24.50;98.30;;;;;;5051309;28;20090;-26
2022/09/08 05:13:00;;;;;;;1.55;0.60;;;24.40;98.30;;;;;;5051112;28;20024;-26
2022/09/08 05:15:26;;;;;;;1.83;0.55;;;24.40;98.30;;;;;;5051389;28;20060;-26
2022/09/08 05:17:52;;;;;;;0.93;0.40;;;24.40;98.30;;;;;;5051381;28;20060;-25
2022/09/08 05:20:18;;;;;;;2.17;0.60;;;24.40;98.40;;;;;;5051085;28;20381;-25
2022/09/08 05:22:44;;;;;;;0.88;0.40;;;24.40;98.40;;;;;;5051119;28;20099;-26
2022/09/08 05:25:10;;;;;;;1.75;0.50;;;24.40;98.40;;;;;;5051305;28;20154;-26
2022/09/08 05:27:35;;;;;;;1.77;0.40;;;24.40;98.40;;;;;;5051117;28;20079;-26
2022/09/08 05:30:01;;;;;;;0.50;0.40;;;24.40;98.40;;;;;;5050965;28;20025;-25
2022/09/08 05:32:27;;;;;;;1.10;0.60;;;24.40;98.40;;;;;;5053488;28;20060;-26
2022/09/08 05:34:53;;;;;;;1.73;0.47;;;24.40;98.50;;;;;;5054792;28;20043;-26
2022/09/08 05:37:18;;;;;;;1.40;0.50;;;24.40;98.50;;;;;;5054742;28;20036;-25
2022/09/08 05:39:46;;;;;;;0.50;0.40;;;24.40;98.50;;;;;;5054605;28;20474;-26
2022/09/08 05:42:11;;;;;;;1.13;0.50;;;24.40;98.40;;;;;;5054400;28;20393;-26
2022/09/08 05:44:37;;;;;;;1.33;0.50;;;24.40;98.50;;;;;;5054578;28;20021;-26
2022/09/08 05:47:03;;;;;;;0.40;0.20;;;24.40;98.50;;;;;;5054594;28;20025;-26
2022/09/08 05:49:28;;;;;;;0.93;0.40;;;24.40;98.50;;;;;;5054324;28;20040;-26
2022/09/08 05:51:54;;;;;;;0.60;0.40;;;24.40;98.50;;;;;;5054396;28;20497;-26
2022/09/08 05:54:21;;;;;;;0.63;0.40;;;24.30;98.50;;;;;;5054442;28;20074;-26
2022/09/08 05:56:47;;;;;;;0.73;0.50;;;24.30;98.50;;;;;;5054228;28;20025;-25
2022/09/08 05:59:13;;;;;;;0.57;0.38;;;24.30;98.50;;;;;;5054180;28;20367;-26
2022/09/08 06:01:38;;;;;;;0.63;0.40;;;24.30;98.60;;;;;;5054177;28;20028;-26
2022/09/08 06:04:04;;;;;;;1.10;0.40;;;24.30;98.50;;;;;;5077643;22;20037;-27
2022/09/08 06:06:32;;;;;;;1.48;0.50;;;24.30;98.60;;;;;;5054525;28;20021;-26
2022/09/08 06:09:01;;;;;;;0.55;0.40;;;24.30;98.60;;;;;;5054302;28;20431;-27
2022/09/08 06:11:29;;;;;;;0.60;0.40;;;24.30;98.90;;;;;;5036250;28;20025;-26
2022/09/08 06:13:55;;;;;;;0.77;0.32;;;24.30;98.50;;;;;;5054392;28;20056;-26
2022/09/08 06:16:21;;;;;;;1.67;0.43;;;24.30;98.60;;;;;;5054494;28;20060;-26
2022/09/08 06:18:47;;;;;;;1.13;0.32;;;24.30;98.60;;;;;;5054136;28;20049;-26
2022/09/08 06:21:24;;;;;;;1.40;0.50;;;24.20;98.50;;;;;;5054215;28;20402;-26
2022/09/08 06:23:56;;;;;;;1.50;0.70;;;24.20;98.60;;;;;;5054403;28;20021;-26
2022/09/08 06:26:52;;;;;;;3.42;0.52;;;24.10;95.50;;;;;;5054017;28;20548;-25
2022/09/08 06:29:44;;;;;;;1.58;0.50;;;23.40;94.50;;;;;;5053699;28;20017;-25
2022/09/08 06:32:23;;;;;;;3.03;0.60;;;23.10;95.40;;;;;;5042291;28;20052;-26
2022/09/08 06:35:05;;;;;;;1.05;0.70;;;23.20;95.80;;;;;;5053591;28;20047;-25
2022/09/08 06:37:48;;;;;;;2.55;0.60;;;23.40;96.00;;;;;;5053675;28;20064;-26
2022/09/08 06:40:21;;;;;;;4.03;0.77;;;23.50;95.90;;;;;;5053423;28;20052;-26
2022/09/08 06:43:03;;;;;;;1.95;0.60;;;23.60;95.80;;;;;;5052431;28;20041;-25
2022/09/08 06:45:34;;;;;;;1.85;0.50;;;23.70;95.80;;;;;;5053531;28;20068;-26
2022/09/08 06:48:11;;;;;;;3.45;0.77;;;23.70;95.80;;;;;;5053861;28;20025;-26
2022/09/08 06:50:47;;;;;;;1.33;0.63;;;23.80;95.80;;;;;;5053250;28;20051;-27
2022/09/08 06:53:23;;;;;;;1.42;0.50;;;23.80;95.90;;;;;;5053594;28;20104;-25
2022/09/08 06:55:58;;;;;;;0.43;0.22;;;23.90;95.80;;;;;;5053342;28;20013;-25
2022/09/08 06:58:32;;;;;;;1.95;0.65;;;23.90;95.80;;;;;;5053298;28;20029;-26
2022/09/08 07:01:13;;;;;;;2.03;0.43;;;23.90;95.80;;;;;;5053037;28;20359;-25
2022/09/08 07:03:58;;;;;;;1.13;0.47;;;23.90;95.80;;;;;;5035029;28;20043;-25
2022/09/08 07:06:27;;;;;;;1.33;0.40;;;23.90;95.80;;;;;;5053133;28;20108;-25
2022/09/08 07:09:10;;;;;;;1.80;0.68;;;23.90;95.80;;;;;;5053256;28;20053;-25
2022/09/08 07:11:39;;;;;;;1.53;0.50;;;23.90;95.80;;;;;;5052872;28;20049;-26
2022/09/08 07:14:32;;;;;;;1.38;0.40;;;23.90;95.80;;;;;;5052816;28;20025;-26
2022/09/08 07:17:25;;;;;;;1.00;0.57;;;23.90;95.80;;;;;;5052874;28;20020;-26
2022/09/08 07:19:53;;;;;;;3.03;0.65;;;23.90;95.80;;;;;;5052673;28;20139;-25
2022/09/08 07:22:43;;;;;;;0.73;0.40;;;23.90;95.90;;;;;;5052622;28;20028;-25
2022/09/08 07:25:23;;;;;;;0.73;0.43;;;23.90;95.90;;;;;;5052727;28;20490;-26
2022/09/08 07:27:55;;;;;;;0.60;0.40;;;23.90;95.90;;;;;;5052978;28;20402;-25
2022/09/08 07:30:21;;;;;;;1.25;0.50;;;23.80;95.80;;;;;;5052415;28;20052;-26
2022/09/08 07:32:55;;;;;;;0.60;0.38;;;23.90;95.90;;;;;;5052489;28;20021;-25
2022/09/08 07:35:25;;;;;;;0.75;0.47;;;23.80;95.80;;;;;;5052602;28;20029;-25
2022/09/08 07:37:54;;;;;;;1.80;0.50;;;23.80;95.80;;;;;;5052460;28;20032;-26
2022/09/08 07:40:33;;;;;;;0.75;0.47;;;23.90;95.80;;;;;;5052268;28;20048;-25
2022/09/08 07:42:59;;;;;;;3.65;0.50;;;23.90;95.80;;;;;;5052136;28;20421;-26
2022/09/08 07:45:39;;;;;;;0.93;0.60;;;23.80;95.80;;;;;;5052371;28;20025;-27
2022/09/08 07:48:51;;;;;;;1.90;0.60;;;23.90;95.80;;;;;;5052215;28;20382;-26
2022/09/08 07:51:21;;;;;;;2.10;0.40;;;23.90;95.80;;;;;;5020864;28;20037;-26
2022/09/08 07:54:17;;;;;;;0.82;0.30;;;23.90;95.80;;;;;;5051968;28;20029;-25
2022/09/08 07:56:45;;;;;;;1.55;0.35;;;24.00;95.80;;;;;;5052222;28;20043;-25
2022/09/08 07:59:32;;;;;;;1.33;0.35;;;24.00;95.60;;;;;;5052037;28;20031;-25
2022/09/08 08:02:28;;;;;;;0.93;0.50;;;24.10;95.60;;;;;;5051975;28;20029;-25
2022/09/08 08:05:20;;;;;;;1.88;0.60;;;24.10;95.50;;;;;;5051994;28;20040;-26
2022/09/08 08:08:02;;;;;;;1.77;0.45;;;24.10;95.40;;;;;;5052005;28;20021;-26
2022/09/08 08:10:36;;;;;;;1.17;0.38;;;24.10;95.40;;;;;;5052065;28;20025;-25
2022/09/08 08:13:20;;;;;;;;;;;24.10;95.40;;;;;;5052325;28;20017;-26
2022/09/08 08:16:07;;;;;;;0.50;0.38;;;24.10;95.40;;;;;;5051899;28;19905;-26
2022/09/08 08:18:54;;;;;;;0.88;0.30;;;24.10;95.50;;;;;;5051758;28;20053;-26
2022/09/08 08:21:29;;;;;;;1.00;0.40;;;24.10;95.40;;;;;;5051743;28;20072;-25
2022/09/08 08:24:06;;;;;;;1.02;0.30;;;24.10;95.40;;;;;;5033867;28;20025;-26
2022/09/08 08:27:00;;;;;;;1.00;0.40;;;24.20;95.40;;;;;;5051825;28;20025;-25
2022/09/08 08:30:02;;;;;;;0.65;0.30;;;24.20;95.40;;;;;;5051736;28;20378;-25
2022/09/08 08:32:36;;;;;;;0.55;0.38;;;24.20;95.30;;;;;;5051781;28;20482;-25
2022/09/08 08:35:11;;;;;;;0.40;0.25;;;24.20;95.30;;;;;;5051597;28;20033;-25
2022/09/08 08:37:40;;;;;;;0.22;0.17;;;24.20;95.30;;;;;;5051739;28;20021;-25
2022/09/08 08:40:23;;;;;;;0.40;0.30;;;24.20;95.30;;;;;;5051497;28;20021;-27
2022/09/08 08:43:39;;;;;;;1.02;0.40;;;24.20;95.60;;;;;;5051573;28;20067;-25
2022/09/08 08:46:04;;;;;;;1.63;0.43;;;24.20;95.30;;;;;;4951383;29;20094;-26
2022/09/08 08:48:54;;;;;;;0.85;0.30;;;24.30;95.20;;;;;;5006268;28;20029;-26
2022/09/08 08:51:41;;;;;;;0.80;0.30;;;24.30;95.20;;;;;;5051672;28;20036;-26
2022/09/08 08:54:32;;;;;;;0.85;0.30;;;24.30;95.50;;;;;;5051510;28;20032;-27
2022/09/08 08:57:07;;;;;;;0.63;0.38;;;24.30;95.00;;;;;;5051646;28;20021;-26
2022/09/08 09:00:00;;;;;;;0.88;0.40;;;24.30;95.00;;;;;;5051341;28;20086;-26
2022/09/08 09:02:41;;;;;;;4.57;0.50;;;24.30;95.00;;;;;;5051731;28;20052;-26
2022/09/08 09:05:34;;;;;;;2.25;0.80;;;24.10;92.10;;;;;;5051763;28;20090;-26
2022/09/08 09:08:24;;;;;;;1.80;0.40;;;23.50;91.60;;;;;;5017618;28;20398;-27
2022/09/08 09:11:11;;;;;;;2.15;0.63;;;23.00;91.70;;;;;;5055277;28;20021;-25
2022/09/08 09:13:52;;;;;;;3.45;0.60;;;22.80;92.40;;;;;;5055237;28;20028;-25
2022/09/08 09:16:50;;;;;;;3.80;0.50;;;23.00;92.70;;;;;;5055258;28;20453;-25
2022/09/08 09:19:37;;;;;;;1.88;0.47;;;23.20;92.70;;;;;;4999941;28;20041;-25
2022/09/08 09:22:11;;;;;;;2.47;0.30;;;23.40;92.60;;;;;;5054932;28;20040;-25
2022/09/08 09:24:39;;;;;;;1.42;0.40;;;23.60;92.60;;;;;;5055068;28;20035;-25
2022/09/08 09:27:27;;;;;;;2.25;0.50;;;23.70;92.40;;;;;;5054826;28;20024;-26
2022/09/08 09:30:18;;;;;;;1.08;0.35;;;23.70;92.40;;;;;;5054853;28;20103;-25
2022/09/08 09:33:05;;;;;;;0.77;0.32;;;23.80;92.60;;;;;;5054884;28;20021;-26
2022/09/08 09:35:47;;;;;;;1.63;0.50;;;23.90;92.70;;;;;;5054714;28;20075;-25
2022/09/08 09:38:18;;;;;;;1.65;0.60;;;23.90;92.70;;;;;;5054762;28;20052;-26
2022/09/08 09:41:11;;;;;;;2.15;0.57;;;23.90;92.80;;;;;;5054549;28;20075;-25
2022/09/08 09:44:08;;;;;;;1.15;0.40;;;24.00;92.90;;;;;;5054535;28;20108;-26
2022/09/08 09:47:13;;;;;;;1.05;0.30;;;24.00;93.00;;;;;;5036746;28;20021;-26
2022/09/08 09:50:09;;;;;;;1.00;0.50;;;24.00;93.10;;;;;;5054536;28;20100;-25
2022/09/08 09:53:11;;;;;;;1.10;0.40;;;24.10;93.20;;;;;;5054545;28;20032;-25
2022/09/08 09:56:01;;;;;;;2.75;0.50;;;24.10;93.10;;;;;;5054477;28;20029;-25
2022/09/08 09:58:51;;;;;;;0.98;0.30;;;24.10;93.20;;;;;;5054089;28;20021;-26
2022/09/08 10:01:41;;;;;;;1.05;0.43;;;24.10;93.20;;;;;;5054257;28;20090;-25
2022/09/08 10:04:23;;;;;;;1.05;0.50;;;24.10;93.30;;;;;;5054159;28;20086;-26
2022/09/08 10:07:09;;;;;;;1.23;0.40;;;24.10;93.40;;;;;;5054113;28;20029;-25
2022/09/08 10:10:14;;;;;;;1.10;0.50;;;24.10;93.40;;;;;;5054364;28;20406;-26
2022/09/08 10:12:57;;;;;;;0.60;0.30;;;24.20;93.30;;;;;;5054117;28;20027;-26
2022/09/08 10:15:35;;;;;;;1.13;0.50;;;24.20;93.30;;;;;;5054172;28;20024;-26
2022/09/08 10:18:19;;;;;;;0.85;0.40;;;24.20;93.30;;;;;;5053794;28;20482;-26
2022/09/08 10:21:06;;;;;;;0.50;0.30;;;24.20;93.30;;;;;;5053795;28;20447;-26
2022/09/08 10:23:43;;;;;;;1.95;0.40;;;24.20;93.20;;;;;;5053780;28;20499;-26
2022/09/08 10:26:37;;;;;;;0.57;0.20;;;24.20;93.30;;;;;;5053839;28;20064;-25
2022/09/08 10:29:15;;;;;;;1.20;0.40;;;24.30;93.20;;;;;;5053655;28;20060;-25
2022/09/08 10:32:10;;;;;;;2.35;0.50;;;24.20;93.20;;;;;;5053627;28;20021;-25
2022/09/08 10:35:17;;;;;;;0.98;0.40;;;24.30;93.10;;;;;;5053719;28;20024;-25
2022/09/08 10:37:58;;;;;;;2.15;0.50;;;24.30;93.20;;;;;;5006849;28;20041;-26
2022/09/08 10:40:38;;;;;;;1.13;0.40;;;24.20;93.20;;;;;;5053446;28;20032;-25
2022/09/08 10:43:03;;;;;;;0.88;0.50;;;24.20;93.20;;;;;;5053359;28;20025;-26
2022/09/08 10:46:08;;;;;;;1.52;0.40;;;24.20;93.20;;;;;;5053851;28;20029;-25
2022/09/08 10:48:58;;;;;;;2.13;0.43;;;24.20;93.40;;;;;;5053372;28;20103;-26
2022/09/08 10:51:39;;;;;;;1.58;0.50;;;24.10;93.40;;;;;;5053355;28;20029;-26
2022/09/08 10:54:14;;;;;;;1.50;0.40;;;24.10;93.40;;;;;;5053378;28;20033;-26
2022/09/08 10:56:42;;;;;;;1.10;0.47;;;24.10;93.60;;;;;;5053174;28;20079;-27
2022/09/08 10:59:29;;;;;;;0.70;0.30;;;24.00;93.60;;;;;;5053000;28;20497;-26
2022/09/08 11:02:19;;;;;;;1.05;0.40;;;24.10;93.70;;;;;;5053360;28;20029;-25
2022/09/08 11:04:59;;;;;;;1.48;0.50;;;24.10;91.20;;;;;;5053170;28;20052;-25
2022/09/08 11:07:37;;;;;;;2.88;0.50;;;23.80;90.40;;;;;;5053156;28;20103;-25
2022/09/08 11:10:06;;;;;;;1.48;0.50;;;23.90;90.90;;;;;;5052831;28;20413;-26
2022/09/08 11:12:58;;;;;;;0.80;0.30;;;23.90;91.10;;;;;;5053008;28;20059;-25
2022/09/08 11:15:49;;;;;;;1.02;0.60;;;24.10;91.30;;;;;;5052834;28;20425;-25
2022/09/08 11:18:42;;;;;;;1.60;0.40;;;24.10;91.40;;;;;;5052801;28;20032;-25
2022/09/08 11:21:28;;;;;;;3.72;0.40;;;24.20;91.50;;;;;;5052684;28;20021;-26
2022/09/08 11:24:22;;;;;;;2.72;0.60;;;24.30;91.60;;;;;;5052527;28;20025;-25
2022/09/08 11:27:35;;;;;;;1.70;0.50;;;24.40;91.70;;;;;;5052903;28;20040;-25
2022/09/08 11:30:13;;;;;;;2.40;0.70;;;24.40;91.70;;;;;;5043001;28;20078;-27
2022/09/08 11:33:17;;;;;;;3.33;0.70;;;24.40;91.70;;;;;;5052588;28;20036;-25
2022/09/08 11:36:11;;;;;;;2.83;0.40;;;24.40;91.80;;;;;;5052601;28;20074;-26
2022/09/08 11:38:51;;;;;;;1.45;0.43;;;24.40;91.90;;;;;;5052279;28;20031;-25
2022/09/08 11:41:48;;;;;;;2.83;0.50;;;24.30;91.90;;;;;;5052373;28;20255;-26
2022/09/08 11:44:46;;;;;;;0.82;0.38;;;24.30;92.00;;;;;;5052362;28;20074;-26
2022/09/08 11:47:39;;;;;;;1.45;0.50;;;24.40;92.00;;;;;;5052369;28;20021;-25
2022/09/08 11:50:14;;;;;;;1.10;0.40;;;24.40;92.00;;;;;;5052133;28;20044;-25
2022/09/08 11:52:48;;;;;;;1.70;0.65;;;24.40;92.10;;;;;;5052298;28;20025;-26
2022/09/08 11:55:16;;;;;;;1.20;0.50;;;24.40;92.10;;;;;;5052133;28;20025;-26
2022/09/08 11:58:02;;;;;;;2.05;0.63;;;24.30;92.20;;;;;;5052238;28;20044;-26
2022/09/08 12:00:50;;;;;;;2.50;0.40;;;24.30;92.30;;;;;;5034079;28;20441;-25
2022/09/08 12:03:42;;;;;;;1.83;0.57;;;24.20;92.40;;;;;;5076837;22;20036;-24
2022/09/08 12:06:30;;;;;;;0.88;0.40;;;24.20;92.40;;;;;;4994668;28;20038;-24
2022/09/08 12:09:17;;;;;;;0.98;0.47;;;24.20;92.50;;;;;;5012931;28;20030;-25
2022/09/08 12:12:06;;;;;;;3.20;0.70;;;24.20;92.60;;;;;;5012707;28;20021;-24
2022/09/08 12:14:52;;;;;;;0.80;0.40;;;24.20;92.60;;;;;;4994935;28;20314;-24
2022/09/08 12:17:48;;;;;;;1.38;0.50;;;24.20;92.90;;;;;;5012531;28;20026;-24
2022/09/08 12:20:53;;;;;;;1.17;0.50;;;24.20;92.70;;;;;;5013318;28;20026;-24
2022/09/08 12:23:32;;;;;;;1.05;0.40;;;24.10;92.90;;;;;;5013158;28;20403;-24
2022/09/08 12:26:17;;;;;;;1.50;0.50;;;24.10;93.00;;;;;;5012531;28;20156;-24
2022/09/08 12:29:03;;;;;;;1.20;0.40;;;24.20;93.00;;;;;;5012209;28;20080;-24
2022/09/08 12:31:50;;;;;;;1.13;0.50;;;24.20;93.00;;;;;;5012650;28;20022;-24
2022/09/08 12:35:00;;;;;;;2.47;0.38;;;24.20;92.90;;;;;;5012500;28;20045;-24
2022/09/08 12:37:47;;;;;;;0.75;0.32;;;24.30;93.00;;;;;;4994788;28;20118;-24
2022/09/08 12:40:22;;;;;;;2.08;0.57;;;24.30;92.90;;;;;;5012510;28;20025;-24
2022/09/08 12:43:23;;;;;;;1.13;0.40;;;24.30;92.80;;;;;;5016453;28;20030;-24
2022/09/08 12:46:16;;;;;;;0.63;0.20;;;24.40;92.80;;;;;;5006112;28;20040;-24
2022/09/08 12:49:21;;;;;;;2.10;0.60;;;24.40;92.80;;;;;;5016911;28;20056;-24
2022/09/08 12:52:02;;;;;;;2.45;0.50;;;24.40;92.80;;;;;;5016802;28;20026;-24
2022/09/08 12:54:28;;;;;;;0.90;0.40;;;24.40;92.90;;;;;;5017007;28;20033;-24
2022/09/08 12:57:15;;;;;;;1.10;0.35;;;24.30;92.90;;;;;;5016405;28;20022;-24
2022/09/08 13:00:06;;;;;;;1.48;0.50;;;24.30;92.90;;;;;;5016415;28;20022;-24
2022/09/08 13:02:56;;;;;;;1.55;0.32;;;24.30;92.90;;;;;;5016585;28;20026;-24
2022/09/08 13:05:39;;;;;;;1.10;0.40;;;24.30;92.90;;;;;;5016378;28;20049;-24
2022/09/08 13:08:33;;;;;;;1.48;0.50;;;24.20;92.90;;;;;;5016095;28;20383;-24
2022/09/08 13:11:35;;;;;;;0.75;0.43;;;24.20;93.00;;;;;;5015633;28;20076;-24
2022/09/08 13:14:07;;;;;;;0.98;0.40;;;24.20;93.10;;;;;;5002473;28;20121;-24
2022/09/08 13:17:15;;;;;;;0.70;0.30;;;24.20;93.10;;;;;;5015872;28;20025;-24
2022/09/08 13:20:12;;;;;;;1.52;0.32;;;24.20;93.10;;;;;;5016409;28;20032;-23
2022/09/08 13:22:57;;;;;;;0.43;0.30;;;24.20;93.20;;;;;;5015732;28;20026;-24
2022/09/08 13:25:26;;;;;;;1.15;0.40;;;24.20;93.20;;;;;;5015857;28;20022;-24
2022/09/08 13:28:26;;;;;;;0.77;0.30;;;24.20;93.10;;;;;;4998446;28;20368;-24
2022/09/08 13:31:20;;;;;;;1.15;0.45;;;24.30;93.10;;;;;;5016102;28;20387;-24
2022/09/08 13:34:24;;;;;;;1.70;0.40;;;24.30;93.00;;;;;;5015387;28;20097;-24
2022/09/08 13:37:19;;;;;;;1.65;0.43;;;24.30;93.40;;;;;;5015344;28;20053;-24
2022/09/08 13:39:53;;;;;;;1.08;0.50;;;24.40;93.10;;;;;;4992109;28;20117;-24